Time;durP1;ratioP1;P1;durP2;ratioP2;P2;SDS_P1;SDS_P2;PMS_P1;PMS_P2;Temp;Humidity;BMP_temperature;BMP_pressure;BME280_temperature;BME280_humidity;BME280_pressure;Samples;Min_cycle;Max_cycle;Signal;HPM_P1;HPM_P2
2023/09/15 00:00:20;;;;;;;7.15;6.32;;;20.50;86.10;;;;;;5013262;28;20080;-75
2023/09/15 00:02:47;;;;;;;6.43;5.95;;;20.50;88.00;;;;;;5021164;28;20112;-76
2023/09/15 00:05:13;;;;;;;6.13;5.65;;;20.40;85.40;;;;;;5023816;28;20025;-75
2023/09/15 00:07:39;;;;;;;12.13;5.63;;;20.30;81.60;;;;;;5021249;28;20021;-75
2023/09/15 00:10:11;;;;;;;6.25;5.65;;;20.30;84.20;;;;;;5022298;28;20036;-75
2023/09/15 00:12:44;;;;;;;6.55;5.80;;;20.30;83.90;;;;;;5005845;28;20512;-75
2023/09/15 00:15:11;;;;;;;6.45;5.53;;;20.30;85.90;;;;;;5021461;28;20382;-75
2023/09/15 00:17:38;;;;;;;8.57;5.90;;;20.40;85.40;;;;;;5004116;28;20021;-75
2023/09/15 00:20:14;;;;;;;6.05;5.63;;;20.40;81.30;;;;;;5023287;28;20108;-75
2023/09/15 00:22:48;;;;;;;6.20;5.80;;;20.50;85.10;;;;;;5006544;28;20116;-75
2023/09/15 00:25:15;;;;;;;6.05;5.65;;;20.60;81.60;;;;;;5020355;28;20021;-75
2023/09/15 00:27:41;;;;;;;6.35;5.85;;;20.60;82.40;;;;;;5012789;28;20034;-75
2023/09/15 00:30:08;;;;;;;6.50;5.90;;;20.60;79.10;;;;;;5021246;28;20053;-75
2023/09/15 00:32:34;;;;;;;6.07;5.65;;;20.50;69.00;;;;;;5021110;28;20489;-75
2023/09/15 00:35:00;;;;;;;5.47;5.05;;;20.50;76.70;;;;;;5005559;28;20025;-75
2023/09/15 00:37:26;;;;;;;8.82;5.85;;;20.60;73.50;;;;;;5020119;28;20157;-75
2023/09/15 00:39:51;;;;;;;8.52;5.45;;;20.60;68.60;;;;;;5022256;28;20077;-75
2023/09/15 00:42:19;;;;;;;5.72;5.13;;;20.60;63.50;;;;;;5021704;28;20021;-75
2023/09/15 00:44:45;;;;;;;6.55;6.07;;;20.60;52.30;;;;;;5022172;28;20022;-75
2023/09/15 00:47:11;;;;;;;6.35;5.80;;;20.60;57.90;;;;;;5002392;28;20029;-75
2023/09/15 00:49:37;;;;;;;7.75;5.38;;;20.70;52.00;;;;;;5022746;28;20417;-75
2023/09/15 00:52:04;;;;;;;7.13;5.45;;;20.70;49.10;;;;;;5023617;28;20381;-75
2023/09/15 00:54:31;;;;;;;5.68;5.13;;;20.70;48.40;;;;;;5023712;28;20266;-75
2023/09/15 00:56:59;;;;;;;6.50;5.80;;;20.70;52.50;;;;;;5025988;28;20064;-75
2023/09/15 00:59:25;;;;;;;5.78;5.35;;;20.80;58.10;;;;;;5020156;28;20425;-75
2023/09/15 01:01:53;;;;;;;6.10;5.65;;;20.80;63.70;;;;;;5021629;28;20531;-75
2023/09/15 01:04:19;;;;;;;7.22;5.57;;;20.80;66.50;;;;;;5013331;28;20033;-75
2023/09/15 01:06:46;;;;;;;5.70;5.32;;;20.80;70.80;;;;;;5019762;28;20050;-75
2023/09/15 01:09:12;;;;;;;5.55;5.05;;;20.70;72.20;;;;;;5002188;28;20278;-75
2023/09/15 01:11:38;;;;;;;6.25;5.40;;;20.70;77.90;;;;;;5021584;28;20029;-75
2023/09/15 01:14:04;;;;;;;6.10;5.60;;;20.70;81.40;;;;;;5019015;28;20116;-75
2023/09/15 01:17:29;;;;;;;9.80;5.32;;;20.60;84.90;;;;;;5022429;28;20104;-75
2023/09/15 01:20:13;;;;;;;6.07;5.70;;;20.60;83.30;;;;;;4947129;29;20027;-75
2023/09/15 01:23:00;;;;;;;6.65;5.20;;;20.60;87.80;;;;;;4931736;29;20344;-75
2023/09/15 01:25:29;;;;;;;5.57;5.15;;;20.60;90.30;;;;;;5011306;28;20183;-75
2023/09/15 01:28:19;;;;;;;9.75;5.25;;;20.60;87.40;;;;;;5011672;28;20034;-75
2023/09/15 01:30:49;;;;;;;5.18;4.60;;;20.70;86.60;;;;;;5014886;28;20034;-75
2023/09/15 01:33:16;;;;;;;5.40;5.00;;;20.60;85.10;;;;;;5002639;28;20030;-75
2023/09/15 01:35:42;;;;;;;5.45;4.95;;;20.60;86.70;;;;;;5013202;28;20485;-75
2023/09/15 01:38:07;;;;;;;4.93;4.63;;;20.60;87.20;;;;;;5010924;28;20025;-75
2023/09/15 01:40:34;;;;;;;5.20;4.80;;;20.60;82.40;;;;;;5021437;28;20385;-75
2023/09/15 01:42:59;;;;;;;5.25;4.72;;;20.60;79.30;;;;;;5021167;28;20520;-75
2023/09/15 01:45:25;;;;;;;5.95;5.45;;;20.60;81.50;;;;;;5019670;28;20117;-75
2023/09/15 01:47:52;;;;;;;5.57;5.18;;;20.60;88.10;;;;;;5022894;28;20358;-75
2023/09/15 01:50:19;;;;;;;5.07;4.78;;;20.60;86.80;;;;;;5019906;28;20044;-75
2023/09/15 01:52:45;;;;;;;5.07;4.75;;;20.60;86.00;;;;;;5020698;28;20501;-75
2023/09/15 01:55:13;;;;;;;5.35;4.93;;;20.60;82.40;;;;;;5021798;28;20056;-76
2023/09/15 01:57:38;;;;;;;5.45;5.05;;;20.60;85.30;;;;;;5006248;28;20028;-75
2023/09/15 02:00:06;;;;;;;5.28;4.97;;;20.60;85.00;;;;;;5023071;28;20034;-75
2023/09/15 02:02:32;;;;;;;5.95;4.95;;;20.60;84.60;;;;;;5024638;28;20033;-75
2023/09/15 02:04:58;;;;;;;5.00;4.38;;;20.60;86.30;;;;;;5025174;28;20473;-75
2023/09/15 02:07:23;;;;;;;5.60;4.93;;;20.70;78.50;;;;;;5023145;28;20429;-75
2023/09/15 02:09:49;;;;;;;8.38;4.85;;;20.70;84.30;;;;;;5008808;28;20026;-75
2023/09/15 02:12:15;;;;;;;6.30;5.05;;;20.60;86.00;;;;;;5024917;28;20084;-75
2023/09/15 02:14:41;;;;;;;4.97;4.65;;;20.70;79.90;;;;;;5006534;28;20030;-75
2023/09/15 02:17:07;;;;;;;5.07;4.57;;;20.60;80.80;;;;;;5005682;28;20371;-75
2023/09/15 02:19:33;;;;;;;6.18;4.85;;;20.70;87.00;;;;;;5025653;28;20021;-75
2023/09/15 02:21:59;;;;;;;7.38;4.22;;;20.60;82.80;;;;;;5005070;28;20111;-75
2023/09/15 02:24:26;;;;;;;5.32;4.93;;;20.70;80.90;;;;;;5024608;28;20025;-75
2023/09/15 02:26:51;;;;;;;5.28;4.82;;;20.70;83.00;;;;;;5027723;28;20010;-75
2023/09/15 02:29:17;;;;;;;6.22;4.60;;;20.60;80.30;;;;;;5022727;28;20033;-75
2023/09/15 02:31:43;;;;;;;5.50;5.10;;;20.70;77.60;;;;;;5015664;28;20021;-75
2023/09/15 02:34:08;;;;;;;4.85;4.38;;;20.70;80.50;;;;;;5014393;28;20362;-76
2023/09/15 02:36:34;;;;;;;5.00;4.60;;;20.70;79.30;;;;;;5024226;28;20112;-75
2023/09/15 02:39:00;;;;;;;6.68;4.72;;;20.70;80.90;;;;;;5006574;28;20036;-75
2023/09/15 02:41:25;;;;;;;5.45;4.95;;;20.60;82.50;;;;;;5022440;28;20478;-75
2023/09/15 02:43:51;;;;;;;5.43;4.63;;;20.60;84.00;;;;;;5027071;28;20026;-75
2023/09/15 02:46:17;;;;;;;5.47;4.95;;;20.70;74.70;;;;;;5007048;28;20280;-75
2023/09/15 02:48:43;;;;;;;5.00;4.50;;;20.70;86.40;;;;;;5013503;28;20486;-75
2023/09/15 02:51:08;;;;;;;4.97;4.57;;;20.60;85.00;;;;;;5023210;28;20505;-75
2023/09/15 02:53:34;;;;;;;5.05;4.68;;;20.60;77.80;;;;;;5015440;28;20052;-75
2023/09/15 02:56:04;;;;;;;4.80;4.50;;;20.70;81.60;;;;;;5021877;28;20089;-75
2023/09/15 02:58:31;;;;;;;4.18;3.90;;;20.70;83.60;;;;;;5025553;28;20482;-75
2023/09/15 03:00:57;;;;;;;5.82;4.88;;;20.70;85.00;;;;;;5022672;28;20068;-75
2023/09/15 03:03:23;;;;;;;4.57;4.28;;;20.60;84.80;;;;;;5024757;28;20037;-75
2023/09/15 03:05:49;;;;;;;4.82;4.43;;;20.60;81.00;;;;;;5021749;28;20029;-75
2023/09/15 03:08:14;;;;;;;4.65;4.32;;;20.60;82.30;;;;;;5005973;28;20507;-75
2023/09/15 03:10:40;;;;;;;5.20;4.80;;;20.60;82.00;;;;;;5023305;28;20375;-75
2023/09/15 03:13:06;;;;;;;5.10;4.50;;;20.60;80.20;;;;;;5022019;28;20033;-75
2023/09/15 03:15:33;;;;;;;4.63;4.15;;;20.60;83.10;;;;;;5024737;28;20032;-75
2023/09/15 03:17:59;;;;;;;5.20;4.80;;;20.60;84.60;;;;;;5021787;28;20029;-75
2023/09/15 03:20:24;;;;;;;4.82;4.43;;;20.60;85.50;;;;;;5005710;28;20022;-75
2023/09/15 03:22:51;;;;;;;4.70;4.40;;;20.60;83.00;;;;;;5023211;28;20486;-75
2023/09/15 03:25:17;;;;;;;5.18;4.88;;;20.50;83.30;;;;;;5003996;28;20188;-75
2023/09/15 03:27:43;;;;;;;5.03;4.53;;;20.50;86.60;;;;;;5008928;28;20033;-75
2023/09/15 03:30:10;;;;;;;5.78;4.70;;;20.50;82.10;;;;;;5004171;28;20026;-75
2023/09/15 03:32:37;;;;;;;4.82;4.43;;;20.50;74.40;;;;;;5022734;28;20025;-75
2023/09/15 03:35:07;;;;;;;6.13;4.63;;;20.50;80.10;;;;;;5023866;28;20449;-75
2023/09/15 03:37:33;;;;;;;4.90;4.60;;;20.50;82.40;;;;;;5003587;28;20428;-75
2023/09/15 03:39:59;;;;;;;5.65;4.38;;;20.50;89.60;;;;;;5005477;28;20021;-75
2023/09/15 03:42:25;;;;;;;7.78;4.88;;;20.50;90.30;;;;;;5022669;28;20477;-75
2023/09/15 03:44:51;;;;;;;4.55;4.25;;;20.50;88.10;;;;;;5021579;28;20073;-75
2023/09/15 03:47:16;;;;;;;4.45;4.25;;;20.40;85.50;;;;;;5024075;28;20028;-75
2023/09/15 03:49:42;;;;;;;6.15;4.70;;;20.40;88.50;;;;;;5021132;28;20109;-75
2023/09/15 03:52:08;;;;;;;5.75;4.97;;;20.40;83.10;;;;;;5022747;28;20152;-75
2023/09/15 03:54:34;;;;;;;6.53;4.05;;;20.40;88.40;;;;;;5022561;28;20018;-75
2023/09/15 03:56:59;;;;;;;9.50;4.55;;;20.40;76.60;;;;;;5022456;28;20381;-75
2023/09/15 03:59:25;;;;;;;5.07;4.68;;;20.40;84.40;;;;;;5023811;28;20137;-75
2023/09/15 04:01:50;;;;;;;4.40;4.10;;;20.40;89.00;;;;;;5021145;28;20026;-75
2023/09/15 04:04:16;;;;;;;5.40;4.95;;;20.40;83.30;;;;;;5022638;28;20025;-75
2023/09/15 04:06:43;;;;;;;5.63;4.10;;;20.40;88.40;;;;;;5022452;28;20569;-75
2023/09/15 04:09:15;;;;;;;4.60;4.30;;;20.30;85.60;;;;;;5020748;28;20028;-75
2023/09/15 04:11:41;;;;;;;;;;;20.30;84.20;;;;;;5021494;28;20022;-75
2023/09/15 04:14:07;;;;;;;4.32;3.92;;;20.30;79.70;;;;;;5022265;28;19909;-75
2023/09/15 04:16:34;;;;;;;6.82;4.82;;;20.30;81.60;;;;;;5022718;28;20020;-75
2023/09/15 04:18:59;;;;;;;4.70;4.28;;;20.30;87.30;;;;;;5020246;28;20026;-75
2023/09/15 04:21:25;;;;;;;4.70;4.40;;;20.30;90.30;;;;;;5022743;28;20018;-75
2023/09/15 04:23:51;;;;;;;4.60;4.30;;;20.30;91.50;;;;;;5021040;28;20029;-75
2023/09/15 04:26:17;;;;;;;4.55;4.25;;;20.30;90.50;;;;;;5023124;28;20489;-75
2023/09/15 04:28:42;;;;;;;4.68;4.38;;;20.30;93.40;;;;;;5013572;28;20104;-75
2023/09/15 04:31:08;;;;;;;5.00;4.63;;;20.30;93.60;;;;;;5020173;28;20030;-75
2023/09/15 04:33:34;;;;;;;4.47;4.18;;;20.30;93.90;;;;;;5022895;28;20075;-75
2023/09/15 04:35:59;;;;;;;6.40;4.65;;;20.30;91.60;;;;;;5003468;28;20068;-75
2023/09/15 04:38:25;;;;;;;4.57;4.18;;;20.30;90.80;;;;;;5021691;28;20018;-75
2023/09/15 04:40:52;;;;;;;4.32;3.80;;;20.30;90.00;;;;;;5023227;28;20561;-75
2023/09/15 04:43:18;;;;;;;4.63;4.22;;;20.30;90.10;;;;;;5013111;28;20025;-75
2023/09/15 04:45:44;;;;;;;4.93;4.53;;;20.30;91.20;;;;;;5020647;28;20266;-75
2023/09/15 04:48:10;;;;;;;4.53;4.13;;;20.30;90.40;;;;;;5024909;28;20025;-75
2023/09/15 04:50:36;;;;;;;4.78;4.28;;;20.30;84.40;;;;;;5022047;28;20029;-75
2023/09/15 04:53:08;;;;;;;4.57;4.28;;;20.30;85.60;;;;;;5023399;28;20505;-75
2023/09/15 04:55:34;;;;;;;4.28;3.80;;;20.30;90.80;;;;;;5005384;28;20462;-75
2023/09/15 04:58:00;;;;;;;4.53;4.22;;;20.30;80.80;;;;;;5022792;28;20018;-75
2023/09/15 05:00:27;;;;;;;3.72;3.42;;;20.30;72.70;;;;;;5022059;28;20466;-75
2023/09/15 05:02:53;;;;;;;4.60;4.00;;;20.30;76.00;;;;;;5019731;28;20022;-75
2023/09/15 05:05:19;;;;;;;3.92;3.45;;;20.30;82.70;;;;;;5023006;28;20033;-75
2023/09/15 05:07:45;;;;;;;3.92;3.67;;;20.30;85.80;;;;;;5024789;28;20106;-75
2023/09/15 05:10:11;;;;;;;8.68;4.43;;;20.30;86.30;;;;;;5031941;28;20452;-75
2023/09/15 05:12:37;;;;;;;5.20;4.80;;;20.40;83.30;;;;;;5030210;28;20025;-75
2023/09/15 05:15:03;;;;;;;5.32;4.05;;;20.40;88.40;;;;;;5031880;28;20041;-75
2023/09/15 05:17:29;;;;;;;4.43;3.95;;;20.30;91.20;;;;;;5005434;28;20044;-79
2023/09/15 05:19:56;;;;;;;5.63;4.18;;;20.30;90.00;;;;;;5030249;28;20474;-78
2023/09/15 05:22:22;;;;;;;4.00;3.70;;;20.30;83.90;;;;;;5030307;28;20022;-78
2023/09/15 05:24:48;;;;;;;4.57;4.28;;;20.30;82.10;;;;;;5029931;28;20437;-79
2023/09/15 05:27:14;;;;;;;6.43;3.80;;;20.30;94.30;;;;;;5029140;28;20100;-79
2023/09/15 05:29:39;;;;;;;3.70;3.50;;;20.30;94.30;;;;;;5030371;28;20041;-79
2023/09/15 05:32:05;;;;;;;4.53;4.13;;;20.30;88.30;;;;;;5032770;28;20480;-79
2023/09/15 05:34:31;;;;;;;6.18;3.55;;;20.30;89.30;;;;;;5033786;28;20101;-79
2023/09/15 05:36:57;;;;;;;4.13;3.78;;;20.30;86.90;;;;;;5034138;28;20075;-79
2023/09/15 05:39:22;;;;;;;4.55;4.15;;;20.40;88.70;;;;;;5023345;28;20026;-79
2023/09/15 05:41:48;;;;;;;6.28;4.00;;;20.30;87.20;;;;;;5023672;28;20029;-79
2023/09/15 05:44:16;;;;;;;5.15;3.88;;;20.40;88.10;;;;;;5024645;28;20497;-80
2023/09/15 05:46:42;;;;;;;3.92;3.40;;;20.40;86.60;;;;;;5022831;28;20022;-79
2023/09/15 05:49:08;;;;;;;4.60;4.15;;;20.40;83.30;;;;;;5022523;28;20030;-78
2023/09/15 05:51:34;;;;;;;5.20;4.70;;;20.40;86.70;;;;;;5007013;28;20037;-78
2023/09/15 05:53:59;;;;;;;4.90;4.35;;;20.40;90.50;;;;;;5023993;28;20057;-78
2023/09/15 05:56:25;;;;;;;3.90;3.60;;;20.40;90.00;;;;;;5022082;28;20018;-79
2023/09/15 05:58:51;;;;;;;4.65;4.22;;;20.40;81.70;;;;;;5024488;28;20021;-79
2023/09/15 06:01:19;;;;;;;4.30;3.90;;;20.40;83.30;;;;;;5021454;28;20030;-78
2023/09/15 06:03:45;;;;;;;4.35;3.97;;;20.40;73.90;;;;;;5023245;28;20017;-78
2023/09/15 06:06:11;;;;;;;4.28;3.50;;;20.50;75.80;;;;;;5023507;28;20313;-79
2023/09/15 06:08:38;;;;;;;4.57;3.88;;;20.50;71.20;;;;;;5003854;28;20116;-78
2023/09/15 06:11:03;;;;;;;4.85;3.97;;;20.50;72.70;;;;;;5021772;28;20104;-79
2023/09/15 06:13:29;;;;;;;3.67;3.47;;;20.50;84.90;;;;;;5024839;28;20159;-80
2023/09/15 06:15:56;;;;;;;4.68;3.90;;;20.50;88.10;;;;;;5024158;28;20032;-80
2023/09/15 06:18:22;;;;;;;4.75;4.18;;;20.50;90.10;;;;;;5023148;28;20010;-79
2023/09/15 06:20:48;;;;;;;7.32;3.72;;;20.50;84.70;;;;;;5025748;28;20018;-80
2023/09/15 06:23:14;;;;;;;6.28;3.63;;;20.50;84.90;;;;;;5018418;28;20049;-79
2023/09/15 06:25:40;;;;;;;4.18;3.85;;;20.60;69.40;;;;;;5023094;28;20474;-78
2023/09/15 06:28:07;;;;;;;6.05;4.03;;;20.60;69.00;;;;;;5022013;28;20024;-78
2023/09/15 06:30:33;;;;;;;3.83;3.63;;;20.60;73.50;;;;;;5030619;28;20014;-78
2023/09/15 06:32:58;;;;;;;3.78;3.58;;;20.70;84.10;;;;;;5017158;28;20374;-78
2023/09/15 06:35:24;;;;;;;5.45;4.28;;;20.70;75.50;;;;;;4999214;28;20113;-78
2023/09/15 06:37:51;;;;;;;4.75;3.70;;;20.70;74.70;;;;;;5022709;28;20104;-79
2023/09/15 06:40:17;;;;;;;5.15;4.10;;;20.70;72.50;;;;;;5028957;28;20101;-78
2023/09/15 06:42:43;;;;;;;4.47;4.00;;;20.80;71.60;;;;;;5025812;28;20087;-78
2023/09/15 06:45:10;;;;;;;4.07;3.53;;;20.80;74.90;;;;;;5016475;28;20076;-79
2023/09/15 06:47:36;;;;;;;5.53;3.85;;;20.90;77.10;;;;;;5028890;28;20124;-78
2023/09/15 06:50:03;;;;;;;4.07;3.88;;;20.90;86.50;;;;;;5014818;28;20641;-79
2023/09/15 06:52:30;;;;;;;7.85;4.20;;;21.00;85.60;;;;;;5015027;28;20074;-78
2023/09/15 06:54:56;;;;;;;3.78;3.58;;;21.00;77.50;;;;;;5027747;28;20048;-79
2023/09/15 06:57:22;;;;;;;4.00;3.80;;;21.00;77.90;;;;;;5026259;28;20036;-79
2023/09/15 06:59:48;;;;;;;6.05;3.80;;;21.10;87.20;;;;;;5032077;28;20390;-79
2023/09/15 07:02:13;;;;;;;4.10;3.80;;;21.10;78.20;;;;;;5015167;28;20148;-78
2023/09/15 07:04:39;;;;;;;4.28;3.92;;;21.10;79.60;;;;;;5014902;28;20033;-78
2023/09/15 07:07:05;;;;;;;3.83;3.42;;;21.10;80.90;;;;;;5019612;28;20095;-79
2023/09/15 07:09:30;;;;;;;4.22;4.03;;;21.10;83.60;;;;;;5024971;28;20030;-79
2023/09/15 07:11:59;;;;;;;4.70;3.88;;;21.10;80.10;;;;;;5000718;28;20021;-78
2023/09/15 07:14:25;;;;;;;4.68;4.28;;;21.10;75.70;;;;;;5014702;28;20490;-79
2023/09/15 07:16:51;;;;;;;4.22;3.92;;;21.20;73.10;;;;;;5026697;28;20071;-78
2023/09/15 07:19:17;;;;;;;4.07;3.72;;;21.20;77.80;;;;;;5029119;28;20049;-79
2023/09/15 07:21:44;;;;;;;4.45;3.53;;;21.30;77.30;;;;;;5014752;28;20406;-79
2023/09/15 07:24:09;;;;;;;4.03;3.47;;;21.30;75.50;;;;;;5014614;28;20041;-78
2023/09/15 07:26:35;;;;;;;4.07;3.70;;;21.40;53.10;;;;;;5019556;28;20484;-78
2023/09/15 07:29:01;;;;;;;3.75;3.55;;;21.50;48.40;;;;;;5025351;28;20088;-78
2023/09/15 07:31:29;;;;;;;3.60;3.30;;;21.60;42.90;;;;;;5014412;28;20092;-78
2023/09/15 07:33:55;;;;;;;3.20;3.10;;;21.60;28.00;;;;;;5006792;28;20026;-75
2023/09/15 07:36:20;;;;;;;3.58;3.38;;;21.70;10.50;;;;;;5012979;28;20389;-75
2023/09/15 07:38:46;;;;;;;5.05;3.30;;;21.70;12.50;;;;;;5019110;28;20093;-75
2023/09/15 07:41:13;;;;;;;4.05;3.60;;;21.70;14.20;;;;;;5003619;28;20508;-75
2023/09/15 07:43:39;;;;;;;4.05;3.75;;;21.80;13.90;;;;;;5020660;28;20040;-75
2023/09/15 07:46:05;;;;;;;4.03;3.22;;;21.80;16.20;;;;;;5009515;28;20034;-75
2023/09/15 07:48:31;;;;;;;3.88;3.25;;;21.90;1.00;;;;;;5022105;28;20032;-75
2023/09/15 07:50:57;;;;;;;4.03;3.72;;;21.90;11.70;;;;;;5010355;28;20125;-75
2023/09/15 07:53:23;;;;;;;3.38;3.17;;;22.00;12.70;;;;;;5004762;28;20503;-75
2023/09/15 07:55:48;;;;;;;3.63;3.33;;;22.00;1.00;;;;;;5005381;28;20374;-75
2023/09/15 07:58:14;;;;;;;4.28;3.88;;;22.00;1.00;;;;;;5024604;28;20405;-75
2023/09/15 08:00:40;;;;;;;4.20;3.45;;;22.10;1.00;;;;;;5023679;28;20068;-75
2023/09/15 08:03:06;;;;;;;3.45;3.25;;;22.10;6.90;;;;;;5021192;28;20040;-75
2023/09/15 08:05:31;;;;;;;3.85;3.55;;;22.20;1.00;;;;;;5024393;28;20029;-75
2023/09/15 08:07:57;;;;;;;3.80;3.50;;;22.20;1.00;;;;;;5021753;28;20025;-75
2023/09/15 08:10:23;;;;;;;3.25;3.05;;;22.30;1.00;;;;;;5011021;28;20025;-75
2023/09/15 08:12:55;;;;;;;4.93;3.53;;;22.30;1.00;;;;;;5023353;28;20079;-75
2023/09/15 08:15:21;;;;;;;3.85;3.55;;;22.40;1.00;;;;;;5021947;28;20046;-75
2023/09/15 08:17:48;;;;;;;4.20;3.70;;;22.40;1.00;;;;;;5021307;28;20076;-75
2023/09/15 08:20:14;;;;;;;3.70;3.47;;;22.40;1.00;;;;;;5023362;28;20433;-75
2023/09/15 08:22:40;;;;;;;3.63;3.38;;;22.40;1.00;;;;;;5020659;28;20068;-75
2023/09/15 08:25:10;;;;;;;3.53;3.30;;;22.40;1.00;;;;;;5022254;28;20028;-75
2023/09/15 08:27:37;;;;;;;3.55;3.35;;;22.40;1.00;;;;;;5025381;28;20029;-76
2023/09/15 08:30:03;;;;;;;3.63;3.42;;;22.40;1.00;;;;;;5020153;28;20436;-75
2023/09/15 08:32:31;;;;;;;3.90;3.55;;;22.50;1.00;;;;;;5022770;28;20432;-76
2023/09/15 08:34:58;;;;;;;4.75;4.35;;;22.50;1.00;;;;;;5021666;28;20105;-75
2023/09/15 08:37:24;;;;;;;5.55;4.43;;;22.60;1.00;;;;;;5022221;28;20044;-75
2023/09/15 08:39:50;;;;;;;4.32;4.03;;;22.60;1.00;;;;;;5020051;28;20574;-75
2023/09/15 08:42:29;;;;;;;6.03;4.82;;;22.60;1.00;;;;;;5022861;28;20058;-76
2023/09/15 08:44:58;;;;;;;5.35;4.82;;;22.70;1.00;;;;;;5022719;28;20014;-75
2023/09/15 08:47:27;;;;;;;5.82;5.32;;;22.70;1.00;;;;;;5020176;28;20056;-75
2023/09/15 08:49:53;;;;;;;6.25;5.60;;;22.70;1.00;;;;;;5003872;28;20032;-75
2023/09/15 08:52:20;;;;;;;6.53;5.95;;;22.70;1.00;;;;;;5022964;28;20077;-75
2023/09/15 08:54:46;;;;;;;7.38;6.07;;;22.70;1.00;;;;;;5022833;28;20437;-75
2023/09/15 08:57:12;;;;;;;11.52;6.32;;;22.70;1.00;;;;;;5021464;28;20482;-76
2023/09/15 08:59:42;;;;;;;8.63;7.00;;;22.70;1.00;;;;;;5021991;28;20029;-75
2023/09/15 09:02:12;;;;;;;9.75;7.05;;;22.70;1.00;;;;;;5021617;28;20362;-75
2023/09/15 09:04:38;;;;;;;12.65;10.07;;;22.60;7.30;;;;;;5023609;28;20026;-75
2023/09/15 09:07:05;;;;;;;14.25;12.75;;;22.60;31.50;;;;;;5003837;28;20026;-75
2023/09/15 09:09:31;;;;;;;17.33;12.68;;;22.70;52.00;;;;;;5012719;28;20428;-75
2023/09/15 09:11:57;;;;;;;14.23;12.73;;;22.70;52.00;;;;;;5002363;28;20410;-75
2023/09/15 09:14:24;;;;;;;16.27;13.63;;;22.60;38.30;;;;;;5022697;28;20036;-75
2023/09/15 09:16:49;;;;;;;14.85;12.82;;;22.70;40.50;;;;;;5020338;28;20048;-75
2023/09/15 09:19:15;;;;;;;16.08;12.05;;;22.70;42.60;;;;;;5021480;28;20048;-75
2023/09/15 09:21:41;;;;;;;15.48;13.05;;;22.80;29.40;;;;;;5021602;28;20032;-76
2023/09/15 09:24:09;;;;;;;17.83;13.45;;;22.80;18.90;;;;;;5019909;28;20485;-75
2023/09/15 09:26:35;;;;;;;16.50;12.50;;;22.80;20.30;;;;;;5022831;28;20030;-75
2023/09/15 09:29:02;;;;;;;12.55;11.35;;;22.90;19.00;;;;;;5021458;28;20076;-75
2023/09/15 09:31:31;;;;;;;15.30;11.25;;;22.90;6.90;;;;;;5021567;28;20486;-75
2023/09/15 09:33:58;;;;;;;12.77;10.52;;;23.00;1.00;;;;;;5019521;28;20112;-75
2023/09/15 09:36:24;;;;;;;12.10;10.90;;;23.00;1.00;;;;;;5022226;28;20095;-75
2023/09/15 09:38:52;;;;;;;15.05;9.88;;;23.10;1.00;;;;;;5020658;28;20022;-75
2023/09/15 09:41:20;;;;;;;9.73;8.73;;;23.20;1.00;;;;;;5020432;28;20021;-75
2023/09/15 09:43:46;;;;;;;9.77;8.88;;;23.30;1.00;;;;;;5022500;28;20025;-75
2023/09/15 09:46:18;;;;;;;13.30;9.57;;;23.40;1.00;;;;;;5019758;28;20032;-75
2023/09/15 09:48:44;;;;;;;11.20;9.00;;;23.40;1.00;;;;;;5002738;28;20037;-75
2023/09/15 09:51:13;;;;;;;10.55;7.05;;;23.50;1.00;;;;;;5013125;28;20026;-75
2023/09/15 09:53:39;;;;;;;9.30;6.53;;;23.70;1.00;;;;;;5018198;28;20056;-75
2023/09/15 09:56:05;;;;;;;8.93;7.53;;;23.70;1.00;;;;;;5022171;28;20105;-75
2023/09/15 09:58:32;;;;;;;10.00;7.03;;;23.70;1.00;;;;;;5024046;28;20032;-75
2023/09/15 10:00:59;;;;;;;11.25;6.68;;;23.70;1.00;;;;;;5022185;28;20100;-75
2023/09/15 10:03:25;;;;;;;8.07;6.28;;;23.80;1.00;;;;;;5019169;28;20078;-75
2023/09/15 10:05:54;;;;;;;7.03;5.90;;;23.80;1.00;;;;;;5021558;28;20025;-75
2023/09/15 10:08:20;;;;;;;7.85;5.75;;;23.80;1.00;;;;;;5021019;28;20034;-75
2023/09/15 10:10:49;;;;;;;10.00;5.75;;;23.80;1.00;;;;;;5019433;28;20105;-75
2023/09/15 10:13:16;;;;;;;6.18;5.03;;;23.90;1.00;;;;;;5019238;28;20370;-75
2023/09/15 10:15:42;;;;;;;9.15;5.25;;;23.80;1.00;;;;;;5021065;28;20481;-75
2023/09/15 10:18:13;;;;;;;4.70;4.30;;;23.80;99.90;;;;;;5021538;28;20029;-75
2023/09/15 10:20:44;;;;;;;5.65;5.10;;;23.80;1.00;;;;;;5022296;28;20036;-75
2023/09/15 10:23:13;;;;;;;6.13;5.60;;;23.70;1.00;;;;;;5023649;28;20080;-75
2023/09/15 10:25:44;;;;;;;7.55;5.70;;;23.70;1.00;;;;;;5025209;28;20034;-76
2023/09/15 10:28:13;;;;;;;8.68;5.18;;;23.70;1.00;;;;;;5025793;28;20105;-75
2023/09/15 10:30:40;;;;;;;11.18;5.85;;;23.70;1.00;;;;;;5006347;28;20116;-75
2023/09/15 10:33:07;;;;;;;10.45;5.68;;;23.70;1.00;;;;;;5024501;28;20049;-75
2023/09/15 10:35:33;;;;;;;6.15;5.65;;;23.50;1.00;;;;;;5021737;28;20026;-75
2023/09/15 10:38:04;;;;;;;6.55;5.95;;;23.50;1.00;;;;;;5024989;28;20028;-75
2023/09/15 10:40:46;;;;;;;6.45;5.55;;;23.50;1.00;;;;;;5006291;28;20061;-75
2023/09/15 10:43:12;;;;;;;6.47;5.82;;;23.70;1.00;;;;;;5022803;28;20033;-75
2023/09/15 10:45:38;;;;;;;8.93;5.70;;;23.50;99.90;;;;;;5023665;28;20060;-75
2023/09/15 10:48:04;;;;;;;9.55;6.00;;;23.60;1.00;;;;;;5024747;28;20056;-75
2023/09/15 10:50:39;;;;;;;8.40;6.38;;;23.70;1.00;;;;;;5004318;28;20026;-75
2023/09/15 10:53:09;;;;;;;7.85;6.30;;;23.70;1.00;;;;;;5025723;28;20042;-75
2023/09/15 10:55:35;;;;;;;6.70;5.80;;;23.70;1.00;;;;;;5021936;28;20029;-75
2023/09/15 10:58:03;;;;;;;6.38;5.85;;;23.90;1.00;;;;;;5025153;28;20031;-75
2023/09/15 11:00:32;;;;;;;8.13;6.78;;;23.90;1.00;;;;;;5022989;28;20026;-75
2023/09/15 11:02:58;;;;;;;8.77;6.13;;;23.90;1.00;;;;;;5022561;28;20026;-75
2023/09/15 11:05:28;;;;;;;7.25;5.78;;;24.00;1.00;;;;;;5025093;28;20095;-75
2023/09/15 11:07:58;;;;;;;7.80;5.25;;;24.00;99.90;;;;;;5022321;28;20087;-75
2023/09/15 11:10:30;;;;;;;13.50;5.45;;;24.10;99.90;;;;;;5022877;28;20112;-75
2023/09/15 11:13:00;;;;;;;5.47;5.07;;;24.20;99.90;;;;;;5027768;28;20032;-75
2023/09/15 11:15:27;;;;;;;5.70;5.20;;;24.30;99.90;;;;;;5021056;28;20025;-75
2023/09/15 11:17:53;;;;;;;5.35;4.95;;;24.40;1.00;;;;;;5023833;28;20497;-75
2023/09/15 11:20:19;;;;;;;7.13;3.72;;;24.50;99.90;;;;;;5021872;28;20145;-75
2023/09/15 11:22:44;;;;;;;4.85;4.45;;;24.60;99.90;;;;;;5017160;28;20022;-75
2023/09/15 11:25:10;;;;;;;5.93;4.25;;;24.60;1.00;;;;;;5022474;28;20617;-75
2023/09/15 11:27:36;;;;;;;5.72;3.95;;;24.60;99.90;;;;;;5026794;28;20018;-75
2023/09/15 11:30:05;;;;;;;4.70;4.30;;;24.60;99.90;;;;;;5023471;28;20025;-75
2023/09/15 11:32:34;;;;;;;4.18;3.85;;;24.70;99.90;;;;;;5020782;28;20021;-75
2023/09/15 11:35:05;;;;;;;3.55;3.35;;;24.90;99.90;;;;;;5024614;28;20032;-75
2023/09/15 11:37:31;;;;;;;4.07;3.60;;;24.80;6.70;;;;;;5020816;28;20026;-75
2023/09/15 11:39:57;;;;;;;3.83;3.47;;;24.80;1.00;;;;;;5020816;28;20017;-75
2023/09/15 11:42:24;;;;;;;3.80;3.60;;;24.80;1.00;;;;;;5021722;28;20029;-75
2023/09/15 11:44:50;;;;;;;4.63;4.22;;;24.80;1.00;;;;;;5023052;28;20095;-75
2023/09/15 11:47:17;;;;;;;3.65;3.35;;;24.70;1.00;;;;;;5020950;28;20056;-75
2023/09/15 11:49:43;;;;;;;3.50;3.20;;;24.80;1.00;;;;;;5024675;28;20010;-75
2023/09/15 11:52:10;;;;;;;3.83;3.58;;;24.80;1.00;;;;;;5021240;28;20117;-75
2023/09/15 11:54:36;;;;;;;6.60;3.40;;;24.70;1.00;;;;;;5024796;28;20022;-75
2023/09/15 11:57:02;;;;;;;5.10;4.18;;;24.80;1.00;;;;;;5026137;28;20104;-75
2023/09/15 11:59:28;;;;;;;3.72;3.53;;;24.80;1.00;;;;;;5023658;28;20026;-75
2023/09/15 12:01:58;;;;;;;4.47;3.90;;;24.80;1.00;;;;;;5020952;28;20022;-75
2023/09/15 12:04:24;;;;;;;3.75;3.38;;;24.80;1.00;;;;;;5020872;28;20033;-75
2023/09/15 12:06:50;;;;;;;4.20;3.90;;;24.90;1.00;;;;;;5024804;28;20030;-75
2023/09/15 12:09:19;;;;;;;3.78;3.47;;;24.90;1.00;;;;;;5024724;28;20117;-75
2023/09/15 12:11:45;;;;;;;5.53;3.63;;;24.90;99.90;;;;;;5020070;28;20370;-74
2023/09/15 12:14:15;;;;;;;3.85;3.55;;;24.90;99.90;;;;;;5016379;28;20064;-75
2023/09/15 12:16:45;;;;;;;4.00;3.70;;;25.00;99.90;;;;;;5027685;28;20100;-75
2023/09/15 12:19:11;;;;;;;4.03;3.67;;;25.00;1.00;;;;;;5019950;28;20089;-75
2023/09/15 12:21:37;;;;;;;3.60;3.30;;;25.10;99.90;;;;;;5012509;28;20482;-75
2023/09/15 12:24:10;;;;;;;5.95;3.10;;;25.10;99.90;;;;;;5018386;28;20432;-75
2023/09/15 12:26:41;;;;;;;2.90;2.80;;;25.20;99.90;;;;;;5021954;28;20386;-75
2023/09/15 12:29:06;;;;;;;3.17;2.97;;;25.30;99.90;;;;;;5021175;28;20445;-75
2023/09/15 12:31:44;;;;;;;3.55;3.25;;;25.40;99.90;;;;;;5021606;28;20033;-75
2023/09/15 12:34:18;;;;;;;3.45;3.15;;;25.50;99.90;;;;;;5007994;28;20449;-75
2023/09/15 12:36:48;;;;;;;3.53;3.25;;;25.70;99.90;;;;;;5006510;28;20096;-75
2023/09/15 12:39:14;;;;;;;3.25;3.05;;;25.70;99.90;;;;;;5002280;28;20042;-75
2023/09/15 12:41:40;;;;;;;3.88;3.53;;;25.70;99.90;;;;;;5022047;28;20021;-75
2023/09/15 12:44:06;;;;;;;2.70;2.60;;;25.70;99.90;;;;;;5021555;28;20032;-75
2023/09/15 12:46:32;;;;;;;2.45;2.35;;;25.80;99.90;;;;;;5023998;28;20021;-75